sensor_id;sensor_type;location;lat;lon;timestamp;temperature;humidity
60868;DHT22;46702;48.370;10.794;2022-08-21T00:01:22;16.50;99.90
60868;DHT22;46702;48.370;10.794;2022-08-21T00:03:49;16.50;99.90
60868;DHT22;46702;48.370;10.794;2022-08-21T00:06:15;16.50;99.90
60868;DHT22;46702;48.370;10.794;2022-08-21T00:08:41;16.50;99.90
60868;DHT22;46702;48.370;10.794;2022-08-21T00:11:08;16.40;99.90
60868;DHT22;46702;48.370;10.794;2022-08-21T00:13:34;16.50;99.90
60868;DHT22;46702;48.370;10.794;2022-08-21T00:16:00;16.50;99.90
60868;DHT22;46702;48.370;10.794;2022-08-21T00:18:26;16.50;99.90
60868;DHT22;46702;48.370;10.794;2022-08-21T00:20:52;16.50;99.90
60868;DHT22;46702;48.370;10.794;2022-08-21T00:23:18;16.40;99.90
60868;DHT22;46702;48.370;10.794;2022-08-21T00:25:45;16.50;99.90
60868;DHT22;46702;48.370;10.794;2022-08-21T00:28:12;16.40;99.90
60868;DHT22;46702;48.370;10.794;2022-08-21T00:30:38;16.40;99.90
60868;DHT22;46702;48.370;10.794;2022-08-21T00:33:05;16.40;99.90
60868;DHT22;46702;48.370;10.794;2022-08-21T00:35:35;16.30;99.90
60868;DHT22;46702;48.370;10.794;2022-08-21T00:38:02;16.30;99.90
60868;DHT22;46702;48.370;10.794;2022-08-21T00:40:36;16.30;99.90
60868;DHT22;46702;48.370;10.794;2022-08-21T00:43:04;16.30;99.90
60868;DHT22;46702;48.370;10.794;2022-08-21T00:45:30;16.30;99.90
60868;DHT22;46702;48.370;10.794;2022-08-21T00:47:57;16.30;99.90
60868;DHT22;46702;48.370;10.794;2022-08-21T00:50:25;16.30;99.90
60868;DHT22;46702;48.370;10.794;2022-08-21T00:52:51;16.30;99.90
60868;DHT22;46702;48.370;10.794;2022-08-21T00:55:17;16.30;99.90
60868;DHT22;46702;48.370;10.794;2022-08-21T00:57:51;16.30;99.90
60868;DHT22;46702;48.370;10.794;2022-08-21T01:00:20;16.30;99.90
60868;DHT22;46702;48.370;10.794;2022-08-21T01:02:46;16.30;99.90
60868;DHT22;46702;48.370;10.794;2022-08-21T01:05:13;16.20;99.90
60868;DHT22;46702;48.370;10.794;2022-08-21T01:07:40;16.20;99.90
60868;DHT22;46702;48.370;10.794;2022-08-21T01:10:06;16.20;99.90
60868;DHT22;46702;48.370;10.794;2022-08-21T01:12:33;16.20;99.90
60868;DHT22;46702;48.370;10.794;2022-08-21T01:15:01;16.10;99.90
60868;DHT22;46702;48.370;10.794;2022-08-21T01:17:27;16.10;99.90
60868;DHT22;46702;48.370;10.794;2022-08-21T01:19:56;16.00;99.90
60868;DHT22;46702;48.370;10.794;2022-08-21T01:22:22;16.00;99.90
60868;DHT22;46702;48.370;10.794;2022-08-21T01:24:48;15.90;99.90
60868;DHT22;46702;48.370;10.794;2022-08-21T01:27:15;15.90;99.90
60868;DHT22;46702;48.370;10.794;2022-08-21T01:30:08;15.80;99.90
60868;DHT22;46702;48.370;10.794;2022-08-21T01:32:34;15.80;99.90
60868;DHT22;46702;48.370;10.794;2022-08-21T01:35:01;15.80;99.90
60868;DHT22;46702;48.370;10.794;2022-08-21T01:37:26;15.80;99.90
60868;DHT22;46702;48.370;10.794;2022-08-21T01:39:52;15.80;99.90
60868;DHT22;46702;48.370;10.794;2022-08-21T01:42:18;15.70;99.90
60868;DHT22;46702;48.370;10.794;2022-08-21T01:44:44;15.70;99.90
60868;DHT22;46702;48.370;10.794;2022-08-21T01:47:12;15.70;99.90
60868;DHT22;46702;48.370;10.794;2022-08-21T01:49:39;15.80;99.90
60868;DHT22;46702;48.370;10.794;2022-08-21T01:52:05;15.80;99.90
60868;DHT22;46702;48.370;10.794;2022-08-21T01:54:31;15.80;99.90
60868;DHT22;46702;48.370;10.794;2022-08-21T01:56:58;15.80;99.90
60868;DHT22;46702;48.370;10.794;2022-08-21T01:59:25;15.80;99.90
60868;DHT22;46702;48.370;10.794;2022-08-21T02:01:50;15.80;99.90
60868;DHT22;46702;48.370;10.794;2022-08-21T02:04:17;15.70;99.90
60868;DHT22;46702;48.370;10.794;2022-08-21T02:06:43;15.70;99.90
60868;DHT22;46702;48.370;10.794;2022-08-21T02:09:10;15.70;99.90
60868;DHT22;46702;48.370;10.794;2022-08-21T02:11:37;15.70;99.90
60868;DHT22;46702;48.370;10.794;2022-08-21T02:14:13;15.70;99.90
60868;DHT22;46702;48.370;10.794;2022-08-21T02:16:41;15.70;99.90
60868;DHT22;46702;48.370;10.794;2022-08-21T02:19:08;15.70;99.90
60868;DHT22;46702;48.370;10.794;2022-08-21T02:21:33;15.60;99.90
60868;DHT22;46702;48.370;10.794;2022-08-21T02:23:59;15.60;99.90
60868;DHT22;46702;48.370;10.794;2022-08-21T02:26:25;15.60;99.90
60868;DHT22;46702;48.370;10.794;2022-08-21T02:28:50;15.70;99.90
60868;DHT22;46702;48.370;10.794;2022-08-21T02:31:16;15.70;99.90
60868;DHT22;46702;48.370;10.794;2022-08-21T02:33:42;15.70;99.90
60868;DHT22;46702;48.370;10.794;2022-08-21T02:36:08;15.70;99.90
60868;DHT22;46702;48.370;10.794;2022-08-21T02:38:37;15.70;99.90
60868;DHT22;46702;48.370;10.794;2022-08-21T02:41:06;15.70;99.90
60868;DHT22;46702;48.370;10.794;2022-08-21T02:43:33;15.70;99.90
60868;DHT22;46702;48.370;10.794;2022-08-21T02:45:59;15.70;99.90
60868;DHT22;46702;48.370;10.794;2022-08-21T02:48:29;15.70;99.90
60868;DHT22;46702;48.370;10.794;2022-08-21T02:51:02;15.60;99.90
60868;DHT22;46702;48.370;10.794;2022-08-21T02:53:29;15.50;99.90
60868;DHT22;46702;48.370;10.794;2022-08-21T02:55:58;15.50;99.90
60868;DHT22;46702;48.370;10.794;2022-08-21T02:58:27;15.40;99.90
60868;DHT22;46702;48.370;10.794;2022-08-21T03:00:53;15.40;99.90
60868;DHT22;46702;48.370;10.794;2022-08-21T03:03:19;15.30;99.90
60868;DHT22;46702;48.370;10.794;2022-08-21T03:05:47;15.30;99.90
60868;DHT22;46702;48.370;10.794;2022-08-21T03:08:14;15.30;99.90
60868;DHT22;46702;48.370;10.794;2022-08-21T03:10:43;15.40;99.90
60868;DHT22;46702;48.370;10.794;2022-08-21T03:13:10;15.30;99.90
60868;DHT22;46702;48.370;10.794;2022-08-21T03:15:36;15.30;99.90
60868;DHT22;46702;48.370;10.794;2022-08-21T03:18:02;15.30;99.90
60868;DHT22;46702;48.370;10.794;2022-08-21T03:20:29;15.30;99.90
60868;DHT22;46702;48.370;10.794;2022-08-21T03:22:56;15.30;99.90
60868;DHT22;46702;48.370;10.794;2022-08-21T03:25:24;15.30;99.90
60868;DHT22;46702;48.370;10.794;2022-08-21T03:27:49;15.30;99.90
60868;DHT22;46702;48.370;10.794;2022-08-21T03:30:18;15.10;99.90
60868;DHT22;46702;48.370;10.794;2022-08-21T03:32:45;15.00;99.90
60868;DHT22;46702;48.370;10.794;2022-08-21T03:35:11;14.90;99.90
60868;DHT22;46702;48.370;10.794;2022-08-21T03:37:38;14.90;99.90
60868;DHT22;46702;48.370;10.794;2022-08-21T03:40:05;14.80;99.90
60868;DHT22;46702;48.370;10.794;2022-08-21T03:42:31;14.90;99.90
60868;DHT22;46702;48.370;10.794;2022-08-21T03:44:57;14.90;99.90
60868;DHT22;46702;48.370;10.794;2022-08-21T03:47:22;15.00;99.90
60868;DHT22;46702;48.370;10.794;2022-08-21T03:49:48;15.00;99.90
60868;DHT22;46702;48.370;10.794;2022-08-21T03:52:14;15.00;99.90
60868;DHT22;46702;48.370;10.794;2022-08-21T03:54:40;15.00;99.90
60868;DHT22;46702;48.370;10.794;2022-08-21T03:57:06;14.90;99.90
60868;DHT22;46702;48.370;10.794;2022-08-21T03:59:32;14.80;99.90
60868;DHT22;46702;48.370;10.794;2022-08-21T04:02:00;14.90;99.90
60868;DHT22;46702;48.370;10.794;2022-08-21T04:04:27;14.90;99.90
60868;DHT22;46702;48.370;10.794;2022-08-21T04:06:53;14.90;99.90
60868;DHT22;46702;48.370;10.794;2022-08-21T04:09:19;14.80;99.90
60868;DHT22;46702;48.370;10.794;2022-08-21T04:11:44;14.80;99.90
60868;DHT22;46702;48.370;10.794;2022-08-21T04:14:11;14.50;99.90
60868;DHT22;46702;48.370;10.794;2022-08-21T04:16:37;14.20;99.90
60868;DHT22;46702;48.370;10.794;2022-08-21T04:19:03;14.20;99.90
60868;DHT22;46702;48.370;10.794;2022-08-21T04:21:29;14.30;99.90
60868;DHT22;46702;48.370;10.794;2022-08-21T04:23:55;14.40;99.90
60868;DHT22;46702;48.370;10.794;2022-08-21T04:26:21;14.50;99.90
60868;DHT22;46702;48.370;10.794;2022-08-21T04:28:47;14.50;99.90
60868;DHT22;46702;48.370;10.794;2022-08-21T04:31:13;14.60;99.90
60868;DHT22;46702;48.370;10.794;2022-08-21T04:33:38;14.60;99.90
60868;DHT22;46702;48.370;10.794;2022-08-21T04:36:05;14.60;99.90
60868;DHT22;46702;48.370;10.794;2022-08-21T04:38:32;14.70;99.90
60868;DHT22;46702;48.370;10.794;2022-08-21T04:40:58;14.70;99.90
60868;DHT22;46702;48.370;10.794;2022-08-21T04:43:24;14.70;99.90
60868;DHT22;46702;48.370;10.794;2022-08-21T04:45:50;14.60;99.90
60868;DHT22;46702;48.370;10.794;2022-08-21T04:48:19;14.60;99.90
60868;DHT22;46702;48.370;10.794;2022-08-21T04:53:43;14.60;99.90
60868;DHT22;46702;48.370;10.794;2022-08-21T04:56:36;14.60;99.90
60868;DHT22;46702;48.370;10.794;2022-08-21T04:59:05;14.70;99.90
60868;DHT22;46702;48.370;10.794;2022-08-21T05:01:34;14.70;99.90
60868;DHT22;46702;48.370;10.794;2022-08-21T05:04:04;14.70;99.90
60868;DHT22;46702;48.370;10.794;2022-08-21T05:06:34;14.80;99.90
60868;DHT22;46702;48.370;10.794;2022-08-21T05:09:00;14.90;99.90
60868;DHT22;46702;48.370;10.794;2022-08-21T05:11:27;14.80;99.90
60868;DHT22;46702;48.370;10.794;2022-08-21T05:13:53;14.90;99.90
60868;DHT22;46702;48.370;10.794;2022-08-21T05:16:19;15.00;99.90
60868;DHT22;46702;48.370;10.794;2022-08-21T05:18:44;15.10;99.90
60868;DHT22;46702;48.370;10.794;2022-08-21T05:21:10;15.10;99.90
60868;DHT22;46702;48.370;10.794;2022-08-21T05:23:36;15.10;99.90
60868;DHT22;46702;48.370;10.794;2022-08-21T05:26:02;15.20;99.90
60868;DHT22;46702;48.370;10.794;2022-08-21T05:28:30;15.20;99.90
60868;DHT22;46702;48.370;10.794;2022-08-21T05:30:55;15.30;99.90
60868;DHT22;46702;48.370;10.794;2022-08-21T05:33:21;15.20;99.90
60868;DHT22;46702;48.370;10.794;2022-08-21T05:35:53;15.10;99.90
60868;DHT22;46702;48.370;10.794;2022-08-21T05:38:21;15.10;99.90
60868;DHT22;46702;48.370;10.794;2022-08-21T05:40:47;15.10;99.90
60868;DHT22;46702;48.370;10.794;2022-08-21T05:43:13;15.30;99.90
60868;DHT22;46702;48.370;10.794;2022-08-21T05:45:40;15.40;99.90
60868;DHT22;46702;48.370;10.794;2022-08-21T05:48:07;15.50;99.90
60868;DHT22;46702;48.370;10.794;2022-08-21T05:50:32;15.60;99.90
60868;DHT22;46702;48.370;10.794;2022-08-21T05:52:58;15.60;99.90
60868;DHT22;46702;48.370;10.794;2022-08-21T05:55:24;15.70;99.90
60868;DHT22;46702;48.370;10.794;2022-08-21T05:57:49;15.70;99.90
60868;DHT22;46702;48.370;10.794;2022-08-21T06:00:15;15.70;99.90
60868;DHT22;46702;48.370;10.794;2022-08-21T06:02:42;15.80;99.90
60868;DHT22;46702;48.370;10.794;2022-08-21T06:05:08;15.80;99.90
60868;DHT22;46702;48.370;10.794;2022-08-21T06:07:33;15.80;99.90
60868;DHT22;46702;48.370;10.794;2022-08-21T06:09:59;15.80;99.90
60868;DHT22;46702;48.370;10.794;2022-08-21T06:12:25;15.80;99.90
60868;DHT22;46702;48.370;10.794;2022-08-21T06:14:51;15.80;99.90
60868;DHT22;46702;48.370;10.794;2022-08-21T06:17:18;15.90;99.90
60868;DHT22;46702;48.370;10.794;2022-08-21T06:19:44;16.00;99.90
60868;DHT22;46702;48.370;10.794;2022-08-21T06:22:09;16.10;99.90
60868;DHT22;46702;48.370;10.794;2022-08-21T06:24:35;16.20;99.90
60868;DHT22;46702;48.370;10.794;2022-08-21T06:27:06;16.30;99.90
60868;DHT22;46702;48.370;10.794;2022-08-21T06:29:33;16.50;99.90
60868;DHT22;46702;48.370;10.794;2022-08-21T06:31:59;16.60;99.90
60868;DHT22;46702;48.370;10.794;2022-08-21T06:34:25;16.70;99.90
60868;DHT22;46702;48.370;10.794;2022-08-21T06:36:50;16.70;99.90
60868;DHT22;46702;48.370;10.794;2022-08-21T06:39:16;16.80;99.90
60868;DHT22;46702;48.370;10.794;2022-08-21T06:41:42;16.80;99.90
60868;DHT22;46702;48.370;10.794;2022-08-21T06:44:07;16.90;99.90
60868;DHT22;46702;48.370;10.794;2022-08-21T06:46:33;17.00;99.90
60868;DHT22;46702;48.370;10.794;2022-08-21T06:48:59;17.10;99.90
60868;DHT22;46702;48.370;10.794;2022-08-21T06:51:25;17.20;99.90
60868;DHT22;46702;48.370;10.794;2022-08-21T06:53:52;17.40;99.90
60868;DHT22;46702;48.370;10.794;2022-08-21T06:56:18;17.60;99.90
60868;DHT22;46702;48.370;10.794;2022-08-21T06:58:44;17.60;99.90
60868;DHT22;46702;48.370;10.794;2022-08-21T07:01:09;17.70;99.90
60868;DHT22;46702;48.370;10.794;2022-08-21T07:03:38;17.90;99.90
60868;DHT22;46702;48.370;10.794;2022-08-21T07:06:04;18.10;99.90
60868;DHT22;46702;48.370;10.794;2022-08-21T07:08:30;18.10;99.90
60868;DHT22;46702;48.370;10.794;2022-08-21T07:10:58;18.10;99.90
60868;DHT22;46702;48.370;10.794;2022-08-21T07:13:24;18.10;99.90
60868;DHT22;46702;48.370;10.794;2022-08-21T07:15:50;18.10;99.90
60868;DHT22;46702;48.370;10.794;2022-08-21T07:18:15;17.80;99.90
60868;DHT22;46702;48.370;10.794;2022-08-21T07:20:41;17.90;99.90
60868;DHT22;46702;48.370;10.794;2022-08-21T07:23:11;18.00;99.90
60868;DHT22;46702;48.370;10.794;2022-08-21T07:25:38;18.30;99.90
60868;DHT22;46702;48.370;10.794;2022-08-21T07:28:04;18.40;99.90
60868;DHT22;46702;48.370;10.794;2022-08-21T07:30:30;18.50;99.90
60868;DHT22;46702;48.370;10.794;2022-08-21T07:32:55;18.60;99.90
60868;DHT22;46702;48.370;10.794;2022-08-21T07:35:22;18.80;99.90
60868;DHT22;46702;48.370;10.794;2022-08-21T07:37:48;19.00;99.90
60868;DHT22;46702;48.370;10.794;2022-08-21T07:40:14;19.30;99.90
60868;DHT22;46702;48.370;10.794;2022-08-21T07:42:45;19.10;99.90
60868;DHT22;46702;48.370;10.794;2022-08-21T07:45:12;19.00;99.90
60868;DHT22;46702;48.370;10.794;2022-08-21T07:47:39;19.00;99.90
60868;DHT22;46702;48.370;10.794;2022-08-21T07:50:06;19.10;99.90
60868;DHT22;46702;48.370;10.794;2022-08-21T07:52:32;19.30;99.90
60868;DHT22;46702;48.370;10.794;2022-08-21T07:54:58;19.40;99.90
60868;DHT22;46702;48.370;10.794;2022-08-21T07:57:24;19.70;99.90
60868;DHT22;46702;48.370;10.794;2022-08-21T07:59:50;19.90;99.90
60868;DHT22;46702;48.370;10.794;2022-08-21T08:02:26;20.10;99.90
60868;DHT22;46702;48.370;10.794;2022-08-21T08:04:52;20.20;99.90
60868;DHT22;46702;48.370;10.794;2022-08-21T08:07:18;20.30;99.90
60868;DHT22;46702;48.370;10.794;2022-08-21T08:09:44;20.50;99.90
60868;DHT22;46702;48.370;10.794;2022-08-21T08:12:10;20.80;99.90
60868;DHT22;46702;48.370;10.794;2022-08-21T08:14:36;20.80;99.90
60868;DHT22;46702;48.370;10.794;2022-08-21T08:17:02;21.00;99.90
60868;DHT22;46702;48.370;10.794;2022-08-21T08:19:28;21.10;99.90
60868;DHT22;46702;48.370;10.794;2022-08-21T08:21:54;21.00;99.90
60868;DHT22;46702;48.370;10.794;2022-08-21T08:24:19;20.80;99.90
60868;DHT22;46702;48.370;10.794;2022-08-21T08:26:45;20.30;99.90
60868;DHT22;46702;48.370;10.794;2022-08-21T08:29:11;20.60;99.90
60868;DHT22;46702;48.370;10.794;2022-08-21T08:31:36;20.90;99.90
60868;DHT22;46702;48.370;10.794;2022-08-21T08:34:02;20.60;99.90
60868;DHT22;46702;48.370;10.794;2022-08-21T08:36:33;20.50;99.90
60868;DHT22;46702;48.370;10.794;2022-08-21T08:39:00;20.50;99.90
60868;DHT22;46702;48.370;10.794;2022-08-21T08:41:27;20.30;99.90
60868;DHT22;46702;48.370;10.794;2022-08-21T08:43:54;20.40;99.90
60868;DHT22;46702;48.370;10.794;2022-08-21T08:46:39;20.90;99.90
60868;DHT22;46702;48.370;10.794;2022-08-21T08:49:15;21.10;99.90
60868;DHT22;46702;48.370;10.794;2022-08-21T08:52:00;21.50;99.90
60868;DHT22;46702;48.370;10.794;2022-08-21T08:54:39;21.80;99.90
60868;DHT22;46702;48.370;10.794;2022-08-21T08:57:13;21.70;99.90
60868;DHT22;46702;48.370;10.794;2022-08-21T08:59:45;21.90;99.90
60868;DHT22;46702;48.370;10.794;2022-08-21T09:02:16;21.90;99.90
60868;DHT22;46702;48.370;10.794;2022-08-21T09:04:42;21.70;99.90
60868;DHT22;46702;48.370;10.794;2022-08-21T09:07:12;22.20;99.90
60868;DHT22;46702;48.370;10.794;2022-08-21T09:10:20;22.60;99.90
60868;DHT22;46702;48.370;10.794;2022-08-21T09:15:53;22.70;99.90
60868;DHT22;46702;48.370;10.794;2022-08-21T09:18:34;22.50;99.90
60868;DHT22;46702;48.370;10.794;2022-08-21T09:24:32;23.20;94.50
60868;DHT22;46702;48.370;10.794;2022-08-21T09:27:04;23.30;92.50
60868;DHT22;46702;48.370;10.794;2022-08-21T09:29:35;23.50;91.40
60868;DHT22;46702;48.370;10.794;2022-08-21T09:32:09;23.90;95.50
60868;DHT22;46702;48.370;10.794;2022-08-21T09:34:36;24.20;92.90
60868;DHT22;46702;48.370;10.794;2022-08-21T09:37:02;24.40;91.30
60868;DHT22;46702;48.370;10.794;2022-08-21T09:39:30;24.40;85.40
60868;DHT22;46702;48.370;10.794;2022-08-21T09:41:57;24.00;87.70
60868;DHT22;46702;48.370;10.794;2022-08-21T09:44:26;23.60;79.80
60868;DHT22;46702;48.370;10.794;2022-08-21T09:46:52;23.50;86.40
60868;DHT22;46702;48.370;10.794;2022-08-21T09:49:30;23.60;93.00
60868;DHT22;46702;48.370;10.794;2022-08-21T09:51:58;23.70;81.30
60868;DHT22;46702;48.370;10.794;2022-08-21T09:54:33;23.90;79.70
60868;DHT22;46702;48.370;10.794;2022-08-21T09:57:12;24.10;73.80
60868;DHT22;46702;48.370;10.794;2022-08-21T10:00:20;23.60;75.00
60868;DHT22;46702;48.370;10.794;2022-08-21T10:02:48;23.80;82.60
60868;DHT22;46702;48.370;10.794;2022-08-21T10:05:24;24.00;72.10
60868;DHT22;46702;48.370;10.794;2022-08-21T10:07:51;23.90;75.60
60868;DHT22;46702;48.370;10.794;2022-08-21T10:12:57;23.30;86.70
60868;DHT22;46702;48.370;10.794;2022-08-21T10:20:54;24.60;81.30
60868;DHT22;46702;48.370;10.794;2022-08-21T10:23:29;24.80;75.30
60868;DHT22;46702;48.370;10.794;2022-08-21T10:26:24;25.00;63.60
60868;DHT22;46702;48.370;10.794;2022-08-21T10:29:09;24.80;64.50
60868;DHT22;46702;48.370;10.794;2022-08-21T10:32:14;24.70;66.70
60868;DHT22;46702;48.370;10.794;2022-08-21T10:37:54;24.80;67.00
60868;DHT22;46702;48.370;10.794;2022-08-21T10:40:30;24.70;65.70
60868;DHT22;46702;48.370;10.794;2022-08-21T10:51:33;24.10;62.60
60868;DHT22;46702;48.370;10.794;2022-08-21T10:56:58;24.20;64.50
60868;DHT22;46702;48.370;10.794;2022-08-21T11:00:06;23.80;65.80
60868;DHT22;46702;48.370;10.794;2022-08-21T11:05:14;23.90;57.30
60868;DHT22;46702;48.370;10.794;2022-08-21T11:07:50;24.00;61.70
60868;DHT22;46702;48.370;10.794;2022-08-21T11:10:28;24.00;58.90
60868;DHT22;46702;48.370;10.794;2022-08-21T11:13:47;24.00;58.20
60868;DHT22;46702;48.370;10.794;2022-08-21T11:15:56;24.20;57.60
60868;DHT22;46702;48.370;10.794;2022-08-21T11:18:32;24.20;54.30
60868;DHT22;46702;48.370;10.794;2022-08-21T11:23:47;24.50;63.30
60868;DHT22;46702;48.370;10.794;2022-08-21T11:26:39;24.60;55.80
60868;DHT22;46702;48.370;10.794;2022-08-21T11:29:52;24.60;57.90
60868;DHT22;46702;48.370;10.794;2022-08-21T11:40:46;24.90;48.90
60868;DHT22;46702;48.370;10.794;2022-08-21T11:43:22;25.00;52.00
60868;DHT22;46702;48.370;10.794;2022-08-21T11:45:55;25.00;54.10
60868;DHT22;46702;48.370;10.794;2022-08-21T11:50:59;24.90;50.50
60868;DHT22;46702;48.370;10.794;2022-08-21T11:56:30;24.60;50.30
60868;DHT22;46702;48.370;10.794;2022-08-21T11:59:02;24.70;50.00
60868;DHT22;46702;48.370;10.794;2022-08-21T12:01:33;24.50;54.40
60868;DHT22;46702;48.370;10.794;2022-08-21T12:06:36;24.50;56.20
60868;DHT22;46702;48.370;10.794;2022-08-21T12:09:09;24.10;52.10
60868;DHT22;46702;48.370;10.794;2022-08-21T12:11:50;24.10;52.30
60868;DHT22;46702;48.370;10.794;2022-08-21T12:14:18;23.80;51.10
60868;DHT22;46702;48.370;10.794;2022-08-21T12:16:46;23.80;53.80
60868;DHT22;46702;48.370;10.794;2022-08-21T12:19:14;23.80;55.70
60868;DHT22;46702;48.370;10.794;2022-08-21T12:24:37;23.80;52.90
60868;DHT22;46702;48.370;10.794;2022-08-21T12:27:41;23.90;53.60
60868;DHT22;46702;48.370;10.794;2022-08-21T12:30:22;23.90;53.30
60868;DHT22;46702;48.370;10.794;2022-08-21T12:35:37;23.80;53.80
60868;DHT22;46702;48.370;10.794;2022-08-21T12:38:17;23.90;54.10
60868;DHT22;46702;48.370;10.794;2022-08-21T12:40:52;23.80;54.30
60868;DHT22;46702;48.370;10.794;2022-08-21T12:43:30;24.10;55.40
60868;DHT22;46702;48.370;10.794;2022-08-21T12:45:56;24.10;59.00
60868;DHT22;46702;48.370;10.794;2022-08-21T12:48:29;24.20;56.80
60868;DHT22;46702;48.370;10.794;2022-08-21T12:53:42;24.00;51.20
60868;DHT22;46702;48.370;10.794;2022-08-21T12:56:13;23.90;51.40
60868;DHT22;46702;48.370;10.794;2022-08-21T12:58:51;23.90;54.40
60868;DHT22;46702;48.370;10.794;2022-08-21T13:03:58;24.00;58.00
60868;DHT22;46702;48.370;10.794;2022-08-21T13:06:29;24.20;53.80
60868;DHT22;46702;48.370;10.794;2022-08-21T13:09:04;24.20;52.70
60868;DHT22;46702;48.370;10.794;2022-08-21T13:11:31;24.20;53.40
60868;DHT22;46702;48.370;10.794;2022-08-21T13:13:58;24.20;53.50
60868;DHT22;46702;48.370;10.794;2022-08-21T13:16:28;24.30;53.90
60868;DHT22;46702;48.370;10.794;2022-08-21T13:19:02;24.30;55.20
60868;DHT22;46702;48.370;10.794;2022-08-21T13:21:34;24.30;52.60
60868;DHT22;46702;48.370;10.794;2022-08-21T13:24:15;24.30;55.10
60868;DHT22;46702;48.370;10.794;2022-08-21T13:26:41;24.30;54.00
60868;DHT22;46702;48.370;10.794;2022-08-21T13:29:09;24.50;52.80
60868;DHT22;46702;48.370;10.794;2022-08-21T13:31:37;24.40;51.10
60868;DHT22;46702;48.370;10.794;2022-08-21T13:34:04;24.30;52.00
60868;DHT22;46702;48.370;10.794;2022-08-21T13:36:34;24.20;51.70
60868;DHT22;46702;48.370;10.794;2022-08-21T13:39:12;24.30;57.00
60868;DHT22;46702;48.370;10.794;2022-08-21T13:41:41;24.30;55.70
60868;DHT22;46702;48.370;10.794;2022-08-21T13:46:43;24.20;50.50
60868;DHT22;46702;48.370;10.794;2022-08-21T13:49:10;24.20;51.80
60868;DHT22;46702;48.370;10.794;2022-08-21T13:51:38;24.30;49.80
60868;DHT22;46702;48.370;10.794;2022-08-21T13:54:24;24.30;58.90
60868;DHT22;46702;48.370;10.794;2022-08-21T13:56:51;24.10;55.20
60868;DHT22;46702;48.370;10.794;2022-08-21T13:59:35;23.90;51.50
60868;DHT22;46702;48.370;10.794;2022-08-21T14:02:16;23.80;57.70
60868;DHT22;46702;48.370;10.794;2022-08-21T14:07:16;23.80;59.70
60868;DHT22;46702;48.370;10.794;2022-08-21T14:09:44;23.90;59.70
60868;DHT22;46702;48.370;10.794;2022-08-21T14:12:26;23.90;54.80
60868;DHT22;46702;48.370;10.794;2022-08-21T14:14:53;23.80;51.50
60868;DHT22;46702;48.370;10.794;2022-08-21T14:17:35;23.60;61.40
60868;DHT22;46702;48.370;10.794;2022-08-21T14:20:04;23.60;59.80
60868;DHT22;46702;48.370;10.794;2022-08-21T14:22:44;23.60;61.70
60868;DHT22;46702;48.370;10.794;2022-08-21T14:25:12;23.50;61.30
60868;DHT22;46702;48.370;10.794;2022-08-21T14:28:11;23.60;56.70
60868;DHT22;46702;48.370;10.794;2022-08-21T14:30:40;23.60;57.00
60868;DHT22;46702;48.370;10.794;2022-08-21T14:33:25;23.70;62.00
60868;DHT22;46702;48.370;10.794;2022-08-21T14:35:51;23.80;61.30
60868;DHT22;46702;48.370;10.794;2022-08-21T14:38:19;23.90;56.90
60868;DHT22;46702;48.370;10.794;2022-08-21T14:40:49;23.90;59.60
60868;DHT22;46702;48.370;10.794;2022-08-21T14:43:16;23.90;61.40
60868;DHT22;46702;48.370;10.794;2022-08-21T14:45:41;24.00;59.70
60868;DHT22;46702;48.370;10.794;2022-08-21T14:48:09;23.90;56.90
60868;DHT22;46702;48.370;10.794;2022-08-21T14:50:34;23.60;57.90
60868;DHT22;46702;48.370;10.794;2022-08-21T14:53:00;23.60;58.80
60868;DHT22;46702;48.370;10.794;2022-08-21T14:55:27;23.50;59.60
60868;DHT22;46702;48.370;10.794;2022-08-21T14:57:54;23.40;63.60
60868;DHT22;46702;48.370;10.794;2022-08-21T15:00:22;23.60;66.60
60868;DHT22;46702;48.370;10.794;2022-08-21T15:02:49;23.60;57.70
60868;DHT22;46702;48.370;10.794;2022-08-21T15:05:16;23.60;60.80
60868;DHT22;46702;48.370;10.794;2022-08-21T15:07:42;23.70;61.70
60868;DHT22;46702;48.370;10.794;2022-08-21T15:10:08;23.80;59.40
60868;DHT22;46702;48.370;10.794;2022-08-21T15:12:34;23.90;60.30
60868;DHT22;46702;48.370;10.794;2022-08-21T15:15:00;23.90;58.40
60868;DHT22;46702;48.370;10.794;2022-08-21T15:17:25;23.90;58.80
60868;DHT22;46702;48.370;10.794;2022-08-21T15:19:51;23.90;57.70
60868;DHT22;46702;48.370;10.794;2022-08-21T15:22:17;24.20;60.90
60868;DHT22;46702;48.370;10.794;2022-08-21T15:24:42;24.20;53.50
60868;DHT22;46702;48.370;10.794;2022-08-21T15:27:09;24.20;52.50
60868;DHT22;46702;48.370;10.794;2022-08-21T15:29:36;24.20;52.50
60868;DHT22;46702;48.370;10.794;2022-08-21T15:34:41;24.30;54.30
60868;DHT22;46702;48.370;10.794;2022-08-21T15:37:07;24.40;52.80
60868;DHT22;46702;48.370;10.794;2022-08-21T15:39:34;24.40;59.60
60868;DHT22;46702;48.370;10.794;2022-08-21T15:42:00;24.50;53.90
60868;DHT22;46702;48.370;10.794;2022-08-21T15:44:27;24.60;52.00
60868;DHT22;46702;48.370;10.794;2022-08-21T15:46:53;24.50;51.20
60868;DHT22;46702;48.370;10.794;2022-08-21T15:49:19;24.70;55.90
60868;DHT22;46702;48.370;10.794;2022-08-21T15:51:44;24.80;55.20
60868;DHT22;46702;48.370;10.794;2022-08-21T15:54:10;24.60;54.10
60868;DHT22;46702;48.370;10.794;2022-08-21T15:56:37;24.80;53.20
60868;DHT22;46702;48.370;10.794;2022-08-21T15:59:12;24.80;49.90
60868;DHT22;46702;48.370;10.794;2022-08-21T16:01:38;24.70;51.30
60868;DHT22;46702;48.370;10.794;2022-08-21T16:04:06;24.80;48.40
60868;DHT22;46702;48.370;10.794;2022-08-21T16:06:32;25.00;54.60
60868;DHT22;46702;48.370;10.794;2022-08-21T16:08:58;25.00;50.30
60868;DHT22;46702;48.370;10.794;2022-08-21T16:11:24;25.20;54.20
60868;DHT22;46702;48.370;10.794;2022-08-21T16:13:50;25.40;56.90
60868;DHT22;46702;48.370;10.794;2022-08-21T16:16:21;25.60;49.10
60868;DHT22;46702;48.370;10.794;2022-08-21T16:18:48;25.70;52.60
60868;DHT22;46702;48.370;10.794;2022-08-21T16:21:15;25.90;52.80
60868;DHT22;46702;48.370;10.794;2022-08-21T16:23:41;25.70;49.10
60868;DHT22;46702;48.370;10.794;2022-08-21T16:26:08;25.40;52.90
60868;DHT22;46702;48.370;10.794;2022-08-21T16:28:37;25.10;52.10
60868;DHT22;46702;48.370;10.794;2022-08-21T16:31:03;24.90;53.40
60868;DHT22;46702;48.370;10.794;2022-08-21T16:33:30;24.80;54.40
60868;DHT22;46702;48.370;10.794;2022-08-21T16:35:57;24.70;55.00
60868;DHT22;46702;48.370;10.794;2022-08-21T16:38:24;24.70;57.50
60868;DHT22;46702;48.370;10.794;2022-08-21T16:40:50;24.60;54.70